createdAt,value
2023-04-16T00:00:41.173Z,4.25
2023-04-16T00:03:14.658Z,6.22
2023-04-16T00:05:45.554Z,4.65
2023-04-16T00:08:16.717Z,6.65
2023-04-16T00:10:47.441Z,10.70
2023-04-16T00:13:18.122Z,9.93
2023-04-16T00:15:48.855Z,10.57
2023-04-16T00:18:22.421Z,6.47
2023-04-16T00:20:53.696Z,7.45
2023-04-16T00:23:25.437Z,8.52
2023-04-16T00:25:57.448Z,6.18
2023-04-16T00:28:28.210Z,7.53
2023-04-16T00:30:59.700Z,9.98
2023-04-16T00:33:33.113Z,6.53
2023-04-16T00:36:04.510Z,7.80
2023-04-16T00:38:35.245Z,5.95
2023-04-16T00:41:06.291Z,5.90
2023-04-16T00:43:36.978Z,4.32
2023-04-16T00:46:09.067Z,5.70
2023-04-16T00:48:44.263Z,5.32
2023-04-16T00:51:15.201Z,6.75
2023-04-16T00:53:47.472Z,4.57
2023-04-16T00:56:18.893Z,6.63
2023-04-16T00:58:49.570Z,6.07
2023-04-16T01:01:20.503Z,9.10
2023-04-16T01:03:54.207Z,6.22
2023-04-16T01:06:25.087Z,5.90
2023-04-16T01:08:56.181Z,7.50
2023-04-16T01:11:26.943Z,6.45
2023-04-16T01:13:57.815Z,5.38
2023-04-16T01:16:29.677Z,5.75
2023-04-16T01:19:03.214Z,7.95
2023-04-16T01:21:36.611Z,6.25
2023-04-16T01:24:07.760Z,6.30
2023-04-16T01:26:38.596Z,8.95
2023-04-16T01:29:09.676Z,7.43
2023-04-16T01:31:40.582Z,6.72
2023-04-16T01:34:19.968Z,8.38
2023-04-16T01:36:53.480Z,7.45
2023-04-16T01:39:24.296Z,6.70
2023-04-16T01:41:55.070Z,7.90
2023-04-16T01:44:26.737Z,5.72
2023-04-16T01:46:57.540Z,8.13
2023-04-16T01:49:29.385Z,6.20
2023-04-16T01:52:02.708Z,7.22
2023-04-16T01:54:33.877Z,7.70
2023-04-16T01:57:04.715Z,10.38
2023-04-16T01:59:35.442Z,7.72
2023-04-16T02:02:11.415Z,8.32
2023-04-16T02:04:43.779Z,8.65
2023-04-16T02:07:17.195Z,5.00
2023-04-16T02:09:48.193Z,11.23
2023-04-16T02:12:19.281Z,8.45
2023-04-16T02:14:51.809Z,12.13
2023-04-16T02:17:23.386Z,8.48
2023-04-16T02:19:55.158Z,8.93
2023-04-16T02:22:29.224Z,8.38
2023-04-16T02:24:59.991Z,12.83
2023-04-16T02:27:30.824Z,12.10
2023-04-16T02:30:11.505Z,12.65
2023-04-16T02:32:42.858Z,15.20
2023-04-16T02:35:14.394Z,8.35
2023-04-16T02:37:47.863Z,10.75
2023-04-16T02:40:18.820Z,8.93
2023-04-16T02:42:49.654Z,12.55
2023-04-16T02:45:20.503Z,10.18
2023-04-16T02:47:51.603Z,9.52
2023-04-16T02:50:22.431Z,8.30
2023-04-16T02:52:55.779Z,7.28
2023-04-16T02:55:26.556Z,5.05
2023-04-16T02:57:57.290Z,5.35
2023-04-16T03:00:28.022Z,8.77
2023-04-16T03:02:58.794Z,6.43
2023-04-16T03:05:29.923Z,6.55
2023-04-16T03:08:03.483Z,12.68
2023-04-16T03:10:35.223Z,10.27
2023-04-16T03:13:07.048Z,8.50
2023-04-16T03:15:37.908Z,8.68
2023-04-16T03:18:08.961Z,10.20
2023-04-16T03:20:39.676Z,8.38
2023-04-16T03:23:13.222Z,5.60
2023-04-16T03:25:46.893Z,7.10
2023-04-16T03:28:21.234Z,5.38
2023-04-16T03:30:55.787Z,6.45
2023-04-16T03:33:26.532Z,7.13
2023-04-16T03:36:01.129Z,10.15
2023-04-16T03:38:37.155Z,8.23
2023-04-16T03:41:08.063Z,5.95
2023-04-16T03:43:39.622Z,7.68
2023-04-16T03:46:10.529Z,7.25
2023-04-16T03:48:41.467Z,9.32
2023-04-16T03:51:12.144Z,5.70
2023-04-16T03:53:46.202Z,5.15
2023-04-16T03:56:18.390Z,6.90
2023-04-16T03:58:49.265Z,8.80
2023-04-16T04:01:20.160Z,7.07
2023-04-16T04:03:51.606Z,7.88
2023-04-16T04:06:22.575Z,5.20
2023-04-16T04:08:56.067Z,4.88
2023-04-16T04:11:26.977Z,7.53
2023-04-16T04:13:58.514Z,6.93
2023-04-16T04:16:29.315Z,7.05
2023-04-16T04:19:02.537Z,8.10
2023-04-16T04:21:33.515Z,6.25
2023-04-16T04:24:07.225Z,4.95
2023-04-16T04:29:09.569Z,4.05
2023-04-16T04:31:41.136Z,7.65
2023-04-16T04:34:12.271Z,8.27
2023-04-16T04:36:43.218Z,5.90
2023-04-16T04:39:20.829Z,6.32
2023-04-16T04:41:53.220Z,8.07
2023-04-16T04:44:24.216Z,7.43
2023-04-16T04:46:55.748Z,5.18
2023-04-16T04:49:26.622Z,5.55
2023-04-16T04:51:57.515Z,5.43
2023-04-16T04:54:31.326Z,5.10
2023-04-16T04:57:02.622Z,6.82
2023-04-16T04:59:34.149Z,7.38
2023-04-16T05:02:05.864Z,7.25
2023-04-16T05:04:36.593Z,7.63
2023-04-16T05:07:07.410Z,6.28
2023-04-16T05:09:40.809Z,7.88
2023-04-16T05:12:11.981Z,7.20
2023-04-16T05:14:42.584Z,5.45
2023-04-16T05:17:13.615Z,6.28
2023-04-16T05:19:44.720Z,6.07
2023-04-16T05:22:19.193Z,11.50
2023-04-16T05:24:52.639Z,10.13
2023-04-16T05:27:23.309Z,8.82
2023-04-16T05:29:54.118Z,7.05
2023-04-16T05:32:26.211Z,7.47
2023-04-16T05:34:57.211Z,9.25
2023-04-16T05:37:27.944Z,13.13
2023-04-16T05:40:01.202Z,6.55
2023-04-16T05:42:32.340Z,6.45
2023-04-16T05:45:05.857Z,11.60
2023-04-16T05:47:36.763Z,8.18
2023-04-16T05:50:08.030Z,8.77
2023-04-16T05:52:39.100Z,8.75
2023-04-16T05:55:13.593Z,7.07
2023-04-16T05:57:44.411Z,7.63
2023-04-16T06:00:15.747Z,8.38
2023-04-16T06:02:46.690Z,8.52
2023-04-16T06:05:17.736Z,12.43
2023-04-16T06:07:48.546Z,6.22
2023-04-16T06:10:22.158Z,6.18
2023-04-16T06:12:52.987Z,6.97
2023-04-16T06:15:23.947Z,10.98
2023-04-16T06:17:54.584Z,11.10
2023-04-16T06:20:25.630Z,7.82
2023-04-16T06:22:56.424Z,11.15
2023-04-16T06:25:29.754Z,8.85
2023-04-16T06:28:00.489Z,9.25
2023-04-16T06:30:31.359Z,6.82
2023-04-16T06:33:02.325Z,8.25
2023-04-16T06:35:33.278Z,12.38
2023-04-16T06:38:04.092Z,8.85
2023-04-16T06:40:37.746Z,8.77
2023-04-16T06:43:08.820Z,7.30
2023-04-16T06:45:39.764Z,7.03
2023-04-16T06:48:10.459Z,6.13
2023-04-16T06:50:41.486Z,9.98
2023-04-16T06:53:12.266Z,14.20
2023-04-16T06:55:45.711Z,10.98
2023-04-16T06:58:16.919Z,6.88
2023-04-16T07:00:48.257Z,8.90
2023-04-16T07:03:19.435Z,5.70
2023-04-16T07:05:50.418Z,7.10
2023-04-16T07:08:21.104Z,6.30
2023-04-16T07:10:54.530Z,5.53
2023-04-16T07:13:25.404Z,9.35
2023-04-16T07:15:56.248Z,8.95
2023-04-16T07:18:26.872Z,10.50
2023-04-16T07:20:57.724Z,6.18
2023-04-16T07:23:28.442Z,9.70
2023-04-16T07:26:01.854Z,7.95
2023-04-16T07:28:32.496Z,6.50
2023-04-16T07:31:03.350Z,5.68
2023-04-16T07:33:34.004Z,4.32
2023-04-16T07:36:05.136Z,4.93
2023-04-16T07:38:35.811Z,5.57
2023-04-16T07:41:09.352Z,4.85
2023-04-16T07:43:40.352Z,6.72
2023-04-16T07:46:11.164Z,6.97
2023-04-16T07:48:41.925Z,5.43
2023-04-16T07:51:12.640Z,5.13
2023-04-16T07:53:43.761Z,5.20
2023-04-16T07:56:17.050Z,8.43
2023-04-16T07:58:47.804Z,7.90
2023-04-16T08:01:18.819Z,7.07
2023-04-16T08:03:49.849Z,7.75
2023-04-16T08:06:20.767Z,9.38
2023-04-16T08:08:53.450Z,7.00
2023-04-16T08:11:27.556Z,7.22
2023-04-16T08:13:58.946Z,4.63
2023-04-16T08:16:29.777Z,4.60
2023-04-16T08:19:01.315Z,6.00
2023-04-16T08:21:32.029Z,5.68
2023-04-16T08:24:02.709Z,6.60
2023-04-16T08:26:36.139Z,4.78
2023-04-16T08:29:07.201Z,8.73
2023-04-16T08:31:38.397Z,8.10
2023-04-16T08:34:11.631Z,6.50
2023-04-16T08:36:46.196Z,6.05
2023-04-16T08:39:17.300Z,4.68
2023-04-16T08:41:52.966Z,6.53
2023-04-16T08:44:28.556Z,4.07
2023-04-16T08:47:01.322Z,4.63
2023-04-16T08:49:33.032Z,4.70
2023-04-16T08:52:04.978Z,7.35
2023-04-16T08:54:41.876Z,6.45
2023-04-16T08:57:19.573Z,7.38
2023-04-16T08:59:51.177Z,6.05
2023-04-16T09:02:22.202Z,4.15
2023-04-16T09:04:54.148Z,6.10
2023-04-16T09:07:27.031Z,6.03
2023-04-16T09:09:57.987Z,8.48
2023-04-16T09:12:31.417Z,7.85
2023-04-16T09:15:04.965Z,8.35
2023-04-16T09:17:37.737Z,8.27
2023-04-16T09:20:12.704Z,7.53
2023-04-16T09:22:43.606Z,5.03
2023-04-16T09:25:14.625Z,7.32
2023-04-16T09:27:48.631Z,6.97
2023-04-16T09:30:24.824Z,7.05
2023-04-16T09:33:15.865Z,5.72
2023-04-16T09:35:50.677Z,8.25
2023-04-16T09:38:21.926Z,8.90
2023-04-16T09:41:09.345Z,7.28
2023-04-16T09:43:52.439Z,5.50
2023-04-16T09:46:23.735Z,7.57
2023-04-16T09:48:54.471Z,8.45
2023-04-16T09:51:26.427Z,6.20
2023-04-16T09:53:59.857Z,5.53
2023-04-16T09:56:30.862Z,4.55
2023-04-16T09:59:05.661Z,9.68
2023-04-16T10:01:36.274Z,10.50
2023-04-16T10:04:10.411Z,6.45
2023-04-16T10:06:41.139Z,7.93
2023-04-16T10:09:12.748Z,7.35
2023-04-16T10:11:43.820Z,6.82
2023-04-16T10:14:17.219Z,11.57
2023-04-16T10:16:48.421Z,6.68
2023-04-16T10:19:19.957Z,4.95
2023-04-16T10:21:51.337Z,5.95
2023-04-16T10:24:22.197Z,4.63
2023-04-16T10:26:54.703Z,10.50
2023-04-16T10:29:30.156Z,8.27
2023-04-16T10:32:02.722Z,8.60
2023-04-16T10:34:35.163Z,7.55
2023-04-16T10:37:06.002Z,5.68
2023-04-16T10:39:40.294Z,4.53
2023-04-16T10:42:13.066Z,4.32
2023-04-16T10:44:49.297Z,3.95
2023-04-16T10:47:20.329Z,4.20
2023-04-16T10:49:51.369Z,5.43
2023-04-16T10:52:22.696Z,4.35
2023-04-16T10:54:56.350Z,5.43
2023-04-16T10:57:32.593Z,4.90
2023-04-16T11:00:06.467Z,6.22
2023-04-16T11:02:37.303Z,8.13
2023-04-16T11:05:09.808Z,5.70
2023-04-16T11:07:40.660Z,7.80
2023-04-16T11:10:16.263Z,5.88
2023-04-16T11:12:49.809Z,6.95
2023-04-16T11:15:23.622Z,5.72
2023-04-16T11:17:55.056Z,5.30
2023-04-16T11:20:28.141Z,4.05
2023-04-16T11:23:00.084Z,3.65
2023-04-16T11:25:34.317Z,7.20
2023-04-16T11:30:40.950Z,5.80
2023-04-16T11:33:12.989Z,3.90
2023-04-16T11:35:46.092Z,3.63
2023-04-16T11:38:16.768Z,4.78
2023-04-16T11:40:48.001Z,6.03
2023-04-16T11:43:20.016Z,4.70
2023-04-16T11:46:12.869Z,5.80
2023-04-16T11:48:51.602Z,5.47
2023-04-16T11:51:23.738Z,4.55
2023-04-16T11:53:56.383Z,4.07
2023-04-16T11:56:30.623Z,6.65
2023-04-16T12:01:50.141Z,3.83
2023-04-16T12:04:24.720Z,5.35
2023-04-16T12:07:08.782Z,6.95
2023-04-16T12:09:40.947Z,5.10
2023-04-16T12:12:31.593Z,5.75
2023-04-16T12:15:04.101Z,6.97
2023-04-16T12:17:39.294Z,5.55
2023-04-16T12:20:13.089Z,4.90
2023-04-16T12:22:52.981Z,9.32
2023-04-16T12:25:23.706Z,5.28
2023-04-16T12:27:58.704Z,5.10
2023-04-16T12:30:31.042Z,4.00
2023-04-16T12:33:22.097Z,3.65
2023-04-16T12:35:52.861Z,3.10
2023-04-16T12:38:24.686Z,4.38
2023-04-16T12:40:57.403Z,3.42
2023-04-16T12:43:28.746Z,3.15
2023-04-16T12:45:59.470Z,4.88
2023-04-16T12:48:32.800Z,4.53
2023-04-16T12:51:03.426Z,3.33
2023-04-16T12:53:34.048Z,3.13
2023-04-16T12:56:04.904Z,4.88
2023-04-16T12:58:35.647Z,4.15
2023-04-16T13:01:06.588Z,4.55
2023-04-16T13:03:39.977Z,6.72
2023-04-16T13:06:11.500Z,4.63
2023-04-16T13:08:42.498Z,5.50
2023-04-16T13:11:13.743Z,6.25
2023-04-16T13:13:44.803Z,5.25
2023-04-16T13:16:15.544Z,5.00
2023-04-16T13:18:48.927Z,4.88
2023-04-16T13:21:19.841Z,5.73
2023-04-16T13:23:50.779Z,6.32
2023-04-16T13:26:22.306Z,6.80
2023-04-16T13:28:53.300Z,5.10
2023-04-16T13:31:24.441Z,3.78
2023-04-16T13:33:57.718Z,4.20
2023-04-16T13:36:30.248Z,3.53
2023-04-16T13:39:01.014Z,6.50
2023-04-16T13:41:32.003Z,5.95
2023-04-16T13:44:02.799Z,5.65
2023-04-16T13:46:33.729Z,4.93
2023-04-16T13:49:07.124Z,4.20
2023-04-16T13:51:37.978Z,6.43
2023-04-16T13:54:08.885Z,4.35
2023-04-16T13:56:39.642Z,4.40
2023-04-16T13:59:10.892Z,5.75
2023-04-16T14:01:41.986Z,6.03
2023-04-16T14:04:16.235Z,3.28
2023-04-16T14:06:47.309Z,4.10
2023-04-16T14:09:18.481Z,6.40
2023-04-16T14:11:49.064Z,7.15
2023-04-16T14:14:19.790Z,4.10
2023-04-16T14:16:50.918Z,6.05
2023-04-16T14:19:24.498Z,4.03
2023-04-16T14:21:55.192Z,4.00
2023-04-16T14:24:25.967Z,4.70
2023-04-16T14:26:56.683Z,3.92
2023-04-16T14:29:27.326Z,6.05
2023-04-16T14:31:58.129Z,4.18
2023-04-16T14:34:31.590Z,4.85
2023-04-16T14:37:02.550Z,5.07
2023-04-16T14:39:33.729Z,3.50
2023-04-16T14:42:04.477Z,3.03
2023-04-16T14:44:35.942Z,3.97
2023-04-16T14:47:06.956Z,3.95
2023-04-16T14:49:40.268Z,4.07
2023-04-16T14:52:11.079Z,5.40
2023-04-16T14:54:41.785Z,6.07
2023-04-16T14:57:12.606Z,6.32
2023-04-16T14:59:43.304Z,4.85
2023-04-16T15:02:14.450Z,4.97
2023-04-16T15:04:47.770Z,6.03
2023-04-16T15:07:18.424Z,5.13
2023-04-16T15:09:49.121Z,4.78
2023-04-16T15:12:20.055Z,6.55
2023-04-16T15:14:50.787Z,5.55
2023-04-16T15:17:22.266Z,5.00
2023-04-16T15:19:55.915Z,6.22
2023-04-16T15:22:26.802Z,5.47
2023-04-16T15:24:57.688Z,4.00
2023-04-16T15:27:28.906Z,4.60
2023-04-16T15:29:59.899Z,4.22
2023-04-16T15:32:30.916Z,3.90
2023-04-16T15:35:06.225Z,5.22
2023-04-16T15:37:37.018Z,4.97
2023-04-16T15:40:09.350Z,3.85
2023-04-16T15:42:40.920Z,3.80
2023-04-16T15:45:12.678Z,4.22
2023-04-16T15:47:43.353Z,4.57
2023-04-16T15:50:16.735Z,3.10
2023-04-16T15:52:48.451Z,2.55
2023-04-16T15:55:21.124Z,4.13
2023-04-16T15:57:52.520Z,3.63
2023-04-16T16:00:24.417Z,3.10
2023-04-16T16:02:55.286Z,4.57
2023-04-16T16:05:28.596Z,5.30
2023-04-16T16:08:01.912Z,3.53
2023-04-16T16:10:32.526Z,1.97
2023-04-16T16:13:05.570Z,1.80
2023-04-16T16:15:36.475Z,2.20
2023-04-16T16:18:07.206Z,2.10
2023-04-16T16:20:40.837Z,1.67
2023-04-16T16:23:11.804Z,1.85
2023-04-16T16:25:42.938Z,2.20
2023-04-16T16:28:13.874Z,2.40
2023-04-16T16:30:45.149Z,2.03
2023-04-16T16:33:16.541Z,2.58
2023-04-16T16:35:50.021Z,2.45
2023-04-16T16:38:21.109Z,2.70
2023-04-16T16:40:54.255Z,2.35
2023-04-16T16:43:25.361Z,3.13
2023-04-16T16:45:56.093Z,2.92
2023-04-16T16:48:26.643Z,2.20
2023-04-16T16:51:00.125Z,2.83
2023-04-16T16:53:30.915Z,3.05
2023-04-16T16:56:01.829Z,3.38
2023-04-16T16:58:32.402Z,2.85
2023-04-16T17:01:03.365Z,2.42
2023-04-16T17:03:34.222Z,3.40
2023-04-16T17:06:07.977Z,4.15
2023-04-16T17:08:39.385Z,3.53
2023-04-16T17:11:10.055Z,2.58
2023-04-16T17:13:40.812Z,3.20
2023-04-16T17:16:12.053Z,3.17
2023-04-16T17:18:42.802Z,2.90
2023-04-16T17:21:16.788Z,3.35
2023-04-16T17:26:18.094Z,3.13
2023-04-16T17:28:49.042Z,3.40
2023-04-16T17:31:19.923Z,2.83
2023-04-16T17:33:50.857Z,2.13
2023-04-16T17:36:25.649Z,1.83
2023-04-16T17:38:56.232Z,1.80
2023-04-16T17:41:26.973Z,1.55
2023-04-16T17:43:57.620Z,1.98
2023-04-16T17:46:28.481Z,1.60
2023-04-16T17:48:59.237Z,1.50
2023-04-16T17:51:32.834Z,1.60
2023-04-16T17:54:03.832Z,1.77
2023-04-16T17:56:34.897Z,2.20
2023-04-16T17:59:06.230Z,1.80
2023-04-16T18:01:36.885Z,2.53
2023-04-16T18:04:07.786Z,3.13
2023-04-16T18:06:41.064Z,4.00
2023-04-16T18:09:12.686Z,1.88
2023-04-16T18:11:43.568Z,3.33
2023-04-16T18:14:16.975Z,2.40
2023-04-16T18:16:49.840Z,2.42
2023-04-16T18:19:20.759Z,1.95
2023-04-16T18:21:54.020Z,2.60
2023-04-16T18:24:24.682Z,2.07
2023-04-16T18:26:55.436Z,3.47
2023-04-16T18:29:26.487Z,2.42
2023-04-16T18:31:57.228Z,3.88
2023-04-16T18:34:29.818Z,4.55
2023-04-16T18:37:03.520Z,4.97
2023-04-16T18:39:36.092Z,4.00
2023-04-16T18:42:06.953Z,2.45
2023-04-16T18:44:37.572Z,3.20
2023-04-16T18:47:08.401Z,2.88
2023-04-16T18:49:39.008Z,3.75
2023-04-16T18:52:12.331Z,3.45
2023-04-16T18:54:43.749Z,2.83
2023-04-16T18:59:47.867Z,3.25
2023-04-16T19:02:18.601Z,3.53
2023-04-16T19:04:49.785Z,3.10
2023-04-16T19:07:22.951Z,2.60
2023-04-16T19:09:53.551Z,3.03
2023-04-16T19:12:25.006Z,3.58
2023-04-16T19:14:56.705Z,3.00
2023-04-16T19:17:28.330Z,3.67
2023-04-16T19:20:00.050Z,4.22
2023-04-16T19:22:34.397Z,3.28
2023-04-16T19:27:37.355Z,4.50
2023-04-16T19:30:10.987Z,4.05
2023-04-16T19:32:42.601Z,2.90
2023-04-16T19:35:15.338Z,2.60
2023-04-16T19:37:49.754Z,3.50
2023-04-16T19:40:21.982Z,2.17
2023-04-16T19:42:53.645Z,3.72
2023-04-16T19:45:27.499Z,2.25
2023-04-16T19:47:59.622Z,2.42
2023-04-16T19:50:31.720Z,2.88
2023-04-16T19:53:06.142Z,3.13
2023-04-16T19:55:38.080Z,2.80
2023-04-16T19:58:10.281Z,3.95
2023-04-16T20:00:43.699Z,4.18
2023-04-16T20:03:15.749Z,3.38
2023-04-16T20:05:46.809Z,3.20
2023-04-16T20:08:20.619Z,3.05
2023-04-16T20:10:51.419Z,4.35
2023-04-16T20:13:22.313Z,3.83
2023-04-16T20:15:55.690Z,3.53
2023-04-16T20:18:29.413Z,2.97
2023-04-16T20:21:00.242Z,3.72
2023-04-16T20:23:33.382Z,3.53
2023-04-16T20:26:04.714Z,5.05
2023-04-16T20:28:35.986Z,4.25
2023-04-16T20:31:07.389Z,3.00
2023-04-16T20:33:39.272Z,4.07
2023-04-16T20:36:11.133Z,3.88
2023-04-16T20:38:45.218Z,3.83
2023-04-16T20:41:20.602Z,4.28
2023-04-16T20:43:53.453Z,3.45
2023-04-16T20:46:30.408Z,4.15
2023-04-16T20:49:01.271Z,2.60
2023-04-16T20:51:32.392Z,4.03
2023-04-16T20:54:06.434Z,3.63
2023-04-16T20:56:45.103Z,3.17
2023-04-16T20:59:16.175Z,3.85
2023-04-16T21:01:48.521Z,4.10
2023-04-16T21:04:22.840Z,3.95
2023-04-16T21:06:55.368Z,3.95
2023-04-16T21:09:28.675Z,3.50
2023-04-16T21:11:59.403Z,3.20
2023-04-16T21:14:30.044Z,4.25
2023-04-16T21:17:01.280Z,4.53
2023-04-16T21:19:32.145Z,3.85
2023-04-16T21:22:02.903Z,3.67
2023-04-16T21:24:37.373Z,3.17
2023-04-16T21:27:08.031Z,4.22
2023-04-16T21:29:39.125Z,3.00
2023-04-16T21:32:09.929Z,3.58
2023-04-16T21:34:40.898Z,4.70
2023-04-16T21:37:11.646Z,4.32
2023-04-16T21:39:44.914Z,2.90
2023-04-16T21:42:15.995Z,4.43
2023-04-16T21:44:47.029Z,3.40
2023-04-16T21:47:17.785Z,2.58
2023-04-16T21:49:48.396Z,4.55
2023-04-16T21:52:21.008Z,4.88
2023-04-16T21:54:57.603Z,3.78
2023-04-16T21:57:28.338Z,3.47
2023-04-16T21:59:58.991Z,3.75
2023-04-16T22:02:29.773Z,4.35
2023-04-16T22:05:00.855Z,4.00
2023-04-16T22:07:31.488Z,4.78
2023-04-16T22:10:04.919Z,4.15
2023-04-16T22:12:37.909Z,3.15
2023-04-16T22:15:10.462Z,4.68
2023-04-16T22:17:41.855Z,3.72
2023-04-16T22:20:13.662Z,3.33
2023-04-16T22:22:44.732Z,3.67
2023-04-16T22:25:18.534Z,3.40
2023-04-16T22:30:20.943Z,3.83
2023-04-16T22:32:52.422Z,2.47
2023-04-16T22:35:23.733Z,3.10
2023-04-16T22:37:54.811Z,4.47
2023-04-16T22:40:34.210Z,4.02
2023-04-16T22:43:05.037Z,6.97
2023-04-16T22:45:36.110Z,4.93
2023-04-16T22:48:07.044Z,4.32
2023-04-16T22:50:37.871Z,4.15
2023-04-16T22:53:08.471Z,3.78
2023-04-16T22:55:41.582Z,3.75
2023-04-16T22:58:12.438Z,4.30
2023-04-16T23:00:43.630Z,4.25
2023-04-16T23:03:14.513Z,3.85
2023-04-16T23:05:45.148Z,3.10
2023-04-16T23:08:16.020Z,3.60
2023-04-16T23:10:49.352Z,4.45
2023-04-16T23:13:20.274Z,4.03
2023-04-16T23:15:51.107Z,5.07
2023-04-16T23:18:21.808Z,3.63
2023-04-16T23:20:54.018Z,4.55
2023-04-16T23:23:24.909Z,4.68
2023-04-16T23:25:58.283Z,3.97
2023-04-16T23:28:28.835Z,4.20
2023-04-16T23:30:59.527Z,3.80
2023-04-16T23:33:30.784Z,4.70
2023-04-16T23:36:01.826Z,5.72
2023-04-16T23:38:32.474Z,4.72
2023-04-16T23:41:05.919Z,4.28
2023-04-16T23:43:37.037Z,3.30
2023-04-16T23:46:07.751Z,5.35
2023-04-16T23:48:38.457Z,3.75
2023-04-16T23:51:09.161Z,4.22
2023-04-16T23:53:40.959Z,4.28
2023-04-16T23:56:15.607Z,4.75
2023-04-16T23:58:46.375Z,3.80
